createdAt,value
2018-07-19T04:14:04.915Z,3.30
2018-07-19T04:16:33.990Z,3.80
2018-07-19T04:19:03.076Z,3.08
2018-07-19T04:21:32.144Z,3.45
2018-07-19T04:24:00.872Z,2.87
2018-07-19T04:26:29.860Z,3.67
2018-07-19T04:28:58.936Z,3.22
2018-07-19T04:31:27.980Z,2.98
2018-07-19T04:33:57.051Z,3.30
2018-07-19T04:36:26.137Z,2.90
2018-07-19T04:38:55.210Z,3.50
2018-07-19T04:41:24.279Z,3.83
2018-07-19T04:43:53.319Z,3.58
2018-07-19T04:46:22.440Z,4.45
2018-07-19T04:48:51.508Z,5.33
2018-07-19T04:51:20.573Z,4.92
2018-07-19T04:53:49.683Z,5.67
2018-07-19T04:56:18.728Z,5.05
2018-07-19T04:58:47.780Z,4.33
2018-07-19T05:01:16.835Z,4.92
2018-07-19T05:03:45.944Z,4.53
2018-07-19T05:06:14.977Z,5.60
2018-07-19T05:08:44.011Z,4.87
2018-07-19T05:11:13.317Z,4.60
2018-07-19T05:13:42.445Z,4.83
2018-07-19T05:16:11.538Z,5.03
2018-07-19T05:18:41.191Z,4.55
2018-07-19T05:21:10.261Z,4.05
2018-07-19T05:23:39.483Z,4.10
2018-07-19T05:26:08.603Z,3.75
2018-07-19T05:28:37.620Z,3.60
2018-07-19T05:31:06.819Z,4.50
2018-07-19T05:33:35.903Z,3.90
2018-07-19T05:36:04.967Z,4.10
2018-07-19T05:38:34.041Z,4.07
2018-07-19T05:41:03.084Z,3.90
2018-07-19T05:43:32.276Z,4.07
2018-07-19T05:46:01.068Z,3.90
2018-07-19T05:48:30.047Z,3.70
2018-07-19T05:50:59.146Z,3.80
2018-07-19T05:53:28.196Z,3.17
2018-07-19T05:55:57.231Z,3.20
2018-07-19T05:58:26.292Z,3.73
2018-07-19T06:00:55.340Z,3.03
2018-07-19T06:03:24.426Z,2.83
2018-07-19T06:05:53.463Z,3.00
2018-07-19T06:08:22.675Z,2.80
2018-07-19T06:10:51.740Z,2.50
2018-07-19T06:13:20.831Z,2.67
2018-07-19T06:15:49.872Z,2.50
2018-07-19T06:18:18.968Z,2.60
2018-07-19T06:20:48.013Z,1.80
2018-07-19T06:23:17.128Z,1.90
2018-07-19T06:25:46.175Z,2.20
2018-07-19T06:28:15.471Z,2.20
2018-07-19T06:30:44.533Z,1.53
2018-07-19T06:33:13.707Z,2.00
2018-07-19T06:35:42.808Z,1.77
2018-07-19T06:38:11.927Z,2.03
2018-07-19T06:40:41.006Z,2.07
2018-07-19T06:43:10.618Z,1.87
2018-07-19T06:45:40.902Z,1.70
2018-07-19T06:48:10.003Z,1.70
2018-07-19T06:50:39.109Z,1.83
2018-07-19T06:53:08.177Z,1.40
2018-07-19T06:55:37.252Z,2.00
2018-07-19T06:58:06.560Z,1.90
2018-07-19T07:00:36.775Z,1.90
2018-07-19T07:03:06.391Z,2.50
2018-07-19T07:05:36.301Z,2.00
2018-07-19T07:08:05.452Z,2.50
2018-07-19T07:10:34.508Z,2.27
2018-07-19T07:13:03.660Z,2.00
2018-07-19T07:15:32.771Z,1.80
2018-07-19T07:18:01.834Z,1.87
2018-07-19T07:20:30.894Z,1.93
2018-07-19T07:22:59.969Z,1.80
2018-07-19T07:25:34.143Z,2.37
2018-07-19T07:28:03.721Z,2.00
2018-07-19T07:30:33.253Z,1.67
2018-07-19T07:33:02.383Z,1.70
2018-07-19T07:35:32.087Z,1.40
2018-07-19T07:38:01.242Z,1.60
2018-07-19T07:40:30.404Z,1.70
2018-07-19T07:45:28.825Z,1.70
2018-07-19T07:47:59.029Z,1.67
2018-07-19T07:50:29.087Z,2.00
2018-07-19T07:52:58.187Z,2.00
2018-07-19T07:55:27.388Z,1.33
2018-07-19T07:57:57.186Z,1.60
2018-07-19T08:00:26.339Z,1.70
2018-07-19T08:02:55.467Z,1.43
2018-07-19T08:05:24.571Z,2.17
2018-07-19T08:07:54.550Z,1.70
2018-07-19T08:10:23.891Z,1.90
2018-07-19T08:12:53.271Z,2.30
2018-07-19T08:15:23.392Z,1.60
2018-07-19T08:17:53.486Z,1.53
2018-07-19T08:20:23.415Z,1.53
2018-07-19T08:22:52.644Z,2.27
2018-07-19T08:25:24.354Z,1.40
2018-07-19T08:27:55.116Z,1.30
2018-07-19T08:30:26.115Z,1.10
2018-07-19T08:32:55.915Z,1.20
2018-07-19T08:35:25.071Z,1.40
2018-07-19T08:37:54.120Z,1.37
2018-07-19T08:40:23.471Z,1.60
2018-07-19T08:42:52.929Z,1.50
2018-07-19T08:45:22.257Z,1.60
2018-07-19T08:47:51.362Z,2.00
2018-07-19T08:50:21.227Z,1.37
2018-07-19T08:52:50.315Z,2.73
2018-07-19T08:55:19.404Z,2.37
2018-07-19T08:57:48.452Z,1.90
2018-07-19T09:00:17.541Z,2.43
2018-07-19T09:02:46.592Z,1.80
2018-07-19T09:05:15.668Z,1.90
2018-07-19T09:07:44.698Z,2.00
2018-07-19T09:10:13.996Z,1.80
2018-07-19T09:12:43.057Z,1.80
2018-07-19T09:15:12.145Z,2.00
2018-07-19T09:17:41.256Z,2.30
2018-07-19T09:20:10.289Z,2.00
2018-07-19T09:22:39.430Z,2.37
2018-07-19T09:25:08.557Z,2.37
2018-07-19T09:27:37.589Z,2.00
2018-07-19T09:30:07.356Z,1.90
2018-07-19T09:32:36.446Z,2.10
2018-07-19T09:35:05.576Z,2.30
2018-07-19T09:37:34.605Z,2.03
2018-07-19T09:40:03.704Z,2.40
2018-07-19T09:42:32.829Z,2.30
2018-07-19T09:45:01.916Z,2.73
2018-07-19T09:47:30.951Z,2.23
2018-07-19T09:50:00.047Z,1.87
2018-07-19T09:52:29.100Z,2.40
2018-07-19T09:54:59.629Z,2.50
2018-07-19T09:57:29.645Z,2.40
2018-07-19T09:59:58.791Z,2.77
2018-07-19T10:02:27.827Z,2.43
2018-07-19T10:04:56.905Z,1.90
2018-07-19T10:07:25.972Z,2.20
2018-07-19T10:09:55.058Z,1.97
2018-07-19T10:12:24.128Z,2.67
2018-07-19T10:14:53.187Z,2.60
2018-07-19T10:17:22.292Z,2.83
2018-07-19T10:19:51.340Z,1.93
2018-07-19T10:22:20.433Z,2.83
2018-07-19T10:24:49.487Z,2.37
2018-07-19T10:27:18.559Z,2.23
2018-07-19T10:29:47.628Z,2.60
2018-07-19T10:32:16.856Z,2.37
2018-07-19T10:34:45.823Z,2.33
2018-07-19T10:37:15.010Z,2.40
2018-07-19T10:39:44.112Z,2.30
2018-07-19T10:42:13.228Z,2.17
2018-07-19T10:44:42.008Z,2.60
2018-07-19T10:47:11.352Z,2.47
2018-07-19T10:49:40.400Z,1.93
2018-07-19T10:52:09.429Z,2.23
2018-07-19T10:54:38.488Z,2.17
2018-07-19T10:57:07.626Z,2.40
2018-07-19T10:59:36.652Z,2.40
2018-07-19T11:02:05.896Z,2.40
2018-07-19T11:04:34.940Z,2.63
2018-07-19T11:07:04.029Z,2.67
2018-07-19T11:09:33.129Z,2.30
2018-07-19T11:12:01.874Z,2.97
2018-07-19T11:14:30.507Z,2.50
2018-07-19T11:16:59.470Z,2.47
2018-07-19T11:19:28.211Z,2.50
2018-07-19T11:21:57.231Z,2.40
2018-07-19T11:24:26.279Z,2.50
2018-07-19T11:26:55.406Z,2.73
2018-07-19T11:29:24.454Z,2.70
2018-07-19T11:31:54.961Z,2.33
2018-07-19T11:34:24.077Z,2.50
2018-07-19T11:36:53.132Z,2.63
2018-07-19T11:39:22.176Z,3.17
2018-07-19T11:41:51.285Z,2.90
2018-07-19T11:44:20.363Z,2.40
2018-07-19T11:46:49.441Z,2.70
2018-07-19T11:49:18.601Z,2.53
2018-07-19T11:51:47.673Z,2.30
2018-07-19T11:54:16.695Z,2.33
2018-07-19T11:56:45.847Z,2.37
2018-07-19T11:59:14.892Z,2.37
2018-07-19T12:01:43.988Z,2.27
2018-07-19T12:04:13.227Z,2.43
2018-07-19T12:06:42.432Z,2.50
2018-07-19T12:09:12.428Z,2.90
2018-07-19T12:11:41.449Z,2.30
2018-07-19T12:14:10.528Z,2.47
2018-07-19T12:16:39.568Z,2.70
2018-07-19T12:19:08.632Z,2.70
2018-07-19T12:21:37.694Z,2.53
2018-07-19T12:24:06.861Z,2.60
2018-07-19T12:26:35.921Z,2.80
2018-07-19T12:29:05.076Z,2.97
2018-07-19T12:31:34.201Z,2.47
2018-07-19T12:34:03.256Z,2.90
2018-07-19T12:36:32.382Z,2.50
2018-07-19T12:39:01.466Z,2.90
2018-07-19T12:41:30.506Z,2.30
2018-07-19T12:43:59.556Z,2.50
2018-07-19T12:46:28.609Z,2.30
2018-07-19T12:48:57.731Z,2.70
2018-07-19T12:51:26.716Z,2.80
2018-07-19T12:53:55.871Z,3.33
2018-07-19T12:56:24.964Z,2.23
2018-07-19T12:58:54.024Z,2.70
2018-07-19T13:01:22.883Z,2.87
2018-07-19T13:03:51.906Z,2.53
2018-07-19T13:06:21.071Z,2.90
2018-07-19T13:08:50.560Z,4.07
2018-07-19T13:11:19.650Z,2.00
2018-07-19T13:13:48.699Z,2.30
2018-07-19T13:16:17.817Z,3.00
2018-07-19T13:18:46.906Z,2.93
2018-07-19T13:21:16.058Z,2.50
2018-07-19T13:23:45.368Z,3.30
2018-07-19T13:26:14.385Z,3.13
2018-07-19T13:28:43.429Z,2.70
2018-07-19T13:31:12.512Z,3.00
2018-07-19T13:33:41.586Z,2.67
2018-07-19T13:36:10.657Z,3.40
2018-07-19T13:38:39.711Z,4.07
2018-07-19T13:41:08.814Z,3.23
2018-07-19T13:43:37.889Z,4.00
2018-07-19T13:46:06.925Z,3.80
2018-07-19T13:48:36.006Z,3.73
2018-07-19T13:51:05.048Z,3.40
2018-07-19T13:53:51.755Z,3.70
2018-07-19T13:56:20.830Z,4.10
2018-07-19T14:01:25.329Z,3.03
2018-07-19T14:03:54.573Z,3.90
2018-07-19T14:06:23.649Z,3.53
2018-07-19T14:08:52.780Z,3.57
2018-07-19T14:11:21.899Z,3.70
2018-07-19T14:13:50.957Z,4.20
2018-07-19T14:16:20.032Z,3.80
2018-07-19T14:18:49.191Z,3.30
2018-07-19T14:21:18.256Z,3.73
2018-07-19T14:23:47.304Z,4.00
2018-07-19T14:26:16.400Z,4.30
2018-07-19T14:28:45.492Z,4.00
2018-07-19T14:31:14.558Z,4.10
2018-07-19T14:33:43.583Z,4.27
2018-07-19T14:36:12.784Z,4.10
2018-07-19T14:38:41.911Z,4.57
2018-07-19T14:41:10.993Z,3.97
2018-07-19T14:43:40.156Z,4.67
2018-07-19T14:46:09.338Z,3.93
2018-07-19T14:48:38.412Z,3.70
2018-07-19T14:51:07.783Z,3.10
2018-07-19T14:53:36.896Z,3.90
2018-07-19T14:56:06.090Z,4.07
2018-07-19T14:58:35.183Z,4.40
2018-07-19T15:01:04.237Z,5.33
2018-07-19T15:03:33.308Z,5.07
2018-07-19T15:06:02.432Z,5.23
2018-07-19T15:08:31.526Z,5.80
2018-07-19T15:11:00.582Z,6.73
2018-07-19T15:13:29.682Z,7.10
2018-07-19T15:15:58.740Z,6.50
2018-07-19T15:18:27.793Z,6.13
2018-07-19T15:20:56.844Z,6.47
2018-07-19T15:23:25.924Z,6.60
2018-07-19T15:25:55.018Z,6.13
2018-07-19T15:28:24.040Z,6.17
2018-07-19T15:30:53.128Z,6.20
2018-07-19T15:33:27.470Z,8.10
2018-07-19T15:35:56.528Z,8.80
2018-07-19T15:38:25.318Z,8.67
2018-07-19T15:40:55.051Z,8.50
2018-07-19T15:43:24.173Z,6.80
2018-07-19T15:45:53.328Z,8.43
2018-07-19T15:48:22.408Z,7.90
2018-07-19T15:50:51.183Z,7.40
2018-07-19T15:53:20.128Z,6.30
2018-07-19T15:55:49.204Z,5.70
2018-07-19T15:58:18.227Z,5.60
2018-07-19T16:00:47.365Z,6.63
2018-07-19T16:03:16.460Z,5.50
2018-07-19T16:05:45.558Z,7.33
2018-07-19T16:08:14.591Z,6.47
2018-07-19T16:10:43.644Z,7.67
2018-07-19T16:13:12.695Z,7.30
2018-07-19T16:15:41.776Z,6.10
2018-07-19T16:18:10.823Z,7.70
2018-07-19T16:20:39.938Z,5.40
2018-07-19T16:23:08.955Z,5.73
2018-07-19T16:25:38.111Z,5.80
2018-07-19T16:28:07.173Z,6.13
2018-07-19T16:30:36.199Z,5.90
2018-07-19T16:33:05.498Z,5.30
2018-07-19T16:35:34.555Z,5.77
2018-07-19T16:38:03.629Z,5.73
2018-07-19T16:40:32.704Z,4.80
2018-07-19T16:43:01.805Z,4.90
2018-07-19T16:45:30.859Z,5.67
2018-07-19T16:47:59.913Z,5.63
2018-07-19T16:50:29.175Z,6.17
2018-07-19T16:52:58.213Z,5.20
2018-07-19T16:55:27.427Z,5.30
2018-07-19T16:57:56.476Z,5.37
2018-07-19T17:00:25.559Z,5.30
2018-07-19T17:02:54.593Z,5.03
2018-07-19T17:05:23.648Z,5.07
2018-07-19T17:07:52.909Z,4.23
2018-07-19T17:10:22.047Z,4.57
2018-07-19T17:12:51.124Z,4.37
2018-07-19T17:15:20.184Z,4.30
2018-07-19T17:17:49.292Z,4.13
2018-07-19T17:20:18.353Z,4.00
2018-07-19T17:22:47.433Z,4.20
2018-07-19T17:25:16.502Z,4.80
2018-07-19T17:27:45.633Z,4.80
2018-07-19T17:30:14.711Z,5.63
2018-07-19T17:32:43.795Z,3.83
2018-07-19T17:35:12.628Z,4.07
2018-07-19T17:37:41.646Z,4.33
2018-07-19T17:40:10.689Z,4.30
2018-07-19T17:42:39.847Z,4.10
2018-07-19T17:45:09.043Z,3.30
2018-07-19T17:47:38.277Z,4.00
2018-07-19T17:50:07.837Z,4.10
2018-07-19T17:52:36.923Z,3.63
2018-07-19T17:55:05.979Z,3.30
2018-07-19T17:57:34.911Z,3.93
2018-07-19T18:00:04.000Z,3.70
2018-07-19T18:02:33.956Z,3.77
2018-07-19T18:05:03.023Z,3.23
2018-07-19T18:07:32.097Z,3.97
2018-07-19T18:10:01.128Z,3.10
2018-07-19T18:12:30.212Z,2.83
2018-07-19T18:14:59.257Z,3.27
2018-07-19T18:17:28.449Z,3.07
2018-07-19T18:19:57.178Z,3.53
2018-07-19T18:22:26.290Z,3.33
2018-07-19T18:24:55.444Z,3.60
2018-07-19T18:27:24.508Z,2.33
2018-07-19T18:29:53.811Z,2.67
2018-07-19T18:32:23.047Z,3.40
2018-07-19T18:34:52.110Z,2.73
2018-07-19T18:37:21.193Z,3.03
2018-07-19T18:39:50.412Z,3.60
2018-07-19T18:42:19.505Z,3.10
2018-07-19T18:44:48.676Z,2.90
2018-07-19T18:47:17.792Z,2.87
2018-07-19T18:49:47.092Z,3.10
2018-07-19T18:52:16.318Z,2.70
2018-07-19T18:54:45.946Z,3.00
2018-07-19T18:57:15.315Z,2.90
2018-07-19T18:59:44.772Z,2.30
2018-07-19T19:02:14.040Z,3.03
2018-07-19T19:04:43.199Z,2.67
2018-07-19T19:07:12.481Z,3.03
2018-07-19T19:09:41.560Z,2.70
2018-07-19T19:12:10.818Z,2.90
2018-07-19T19:14:40.125Z,2.87
2018-07-19T19:17:09.295Z,2.83
2018-07-19T19:19:38.706Z,2.73
2018-07-19T19:22:07.916Z,3.37
2018-07-19T19:24:37.298Z,2.63
2018-07-19T19:27:06.649Z,3.45
2018-07-19T19:29:35.973Z,3.15
2018-07-19T19:32:05.133Z,3.60
2018-07-19T19:34:34.501Z,3.08
2018-07-19T19:37:03.685Z,3.30
2018-07-19T19:39:32.760Z,3.15
2018-07-19T19:42:01.837Z,3.60
2018-07-19T19:44:30.948Z,3.25
2018-07-19T19:47:00.132Z,3.20
2018-07-19T19:49:29.229Z,3.52
2018-07-19T19:51:58.520Z,2.90
2018-07-19T19:54:27.865Z,3.67
2018-07-19T19:56:57.157Z,3.30
2018-07-19T19:59:26.316Z,3.77
2018-07-19T20:01:55.599Z,3.80
2018-07-19T20:04:24.709Z,3.60
2018-07-19T20:06:53.852Z,3.50
2018-07-19T20:09:23.095Z,4.17
2018-07-19T20:11:52.265Z,4.12
2018-07-19T20:14:21.175Z,3.62
2018-07-19T20:16:50.534Z,3.83
2018-07-19T20:19:19.980Z,4.05
2018-07-19T20:21:49.549Z,3.65
2018-07-19T20:24:19.034Z,3.80
2018-07-19T20:26:48.396Z,3.65
2018-07-19T20:29:18.614Z,4.15
2018-07-19T20:31:47.849Z,3.80
2018-07-19T20:34:20.448Z,4.90
2018-07-19T20:36:47.032Z,3.85
2018-07-19T20:39:16.391Z,4.87
2018-07-19T20:41:48.051Z,4.20
2018-07-19T20:44:17.157Z,4.12
2018-07-19T20:46:46.332Z,4.25
2018-07-19T20:49:15.561Z,5.03
2018-07-19T20:51:45.067Z,4.35
2018-07-19T20:54:14.327Z,4.47
2018-07-19T20:56:43.399Z,4.72
2018-07-19T20:59:12.744Z,4.62
2018-07-19T21:01:42.010Z,4.42
2018-07-19T21:04:11.205Z,4.65
2018-07-19T21:06:40.317Z,4.55
2018-07-19T21:09:11.099Z,5.42
2018-07-19T21:11:40.447Z,4.37
2018-07-19T21:14:10.258Z,5.65
2018-07-19T21:16:39.338Z,5.00
2018-07-19T21:19:08.429Z,4.85
2018-07-19T21:21:37.495Z,4.33
2018-07-19T21:24:06.604Z,4.60
2018-07-19T21:26:35.761Z,4.92
2018-07-19T21:29:04.820Z,4.90
2018-07-19T21:31:33.926Z,4.22
2018-07-19T21:34:03.000Z,4.80
2018-07-19T21:36:32.063Z,5.65
2018-07-19T21:39:01.130Z,5.80
2018-07-19T21:41:30.161Z,4.50
2018-07-19T21:43:58.923Z,4.80
2018-07-19T21:46:27.856Z,5.37
2018-07-19T21:48:56.934Z,4.83
2018-07-19T21:51:26.134Z,4.80
2018-07-19T21:53:55.231Z,5.10
2018-07-19T21:56:24.465Z,5.47
2018-07-19T21:58:53.540Z,5.10
2018-07-19T22:01:22.637Z,6.55
2018-07-19T22:03:51.724Z,5.67
2018-07-19T22:06:20.884Z,5.33
